createdAt,value
2018-04-10T00:00:15.362Z,20.21
2018-04-10T00:02:43.805Z,19.94
2018-04-10T00:05:12.189Z,20.18
2018-04-10T00:07:40.562Z,19.68
2018-04-10T00:10:08.927Z,20.20
2018-04-10T00:12:37.386Z,19.52
2018-04-10T00:15:05.761Z,19.93
2018-04-10T00:17:34.213Z,20.46
2018-04-10T00:20:02.590Z,19.95
2018-04-10T00:22:30.953Z,20.24
2018-04-10T00:24:59.365Z,20.36
2018-04-10T00:27:27.815Z,20.04
2018-04-10T00:29:56.192Z,19.80
2018-04-10T00:32:24.558Z,20.04
2018-04-10T00:34:52.967Z,20.30
2018-04-10T00:37:21.342Z,19.94
2018-04-10T00:39:49.715Z,20.23
2018-04-10T00:42:18.085Z,19.91
2018-04-10T00:44:46.605Z,20.36
2018-04-10T00:47:14.983Z,19.23
2018-04-10T00:49:43.346Z,19.83
2018-04-10T00:52:11.711Z,19.11
2018-04-10T00:54:40.091Z,19.71
2018-04-10T00:57:08.576Z,20.00
2018-04-10T00:59:36.958Z,20.26
2018-04-10T01:02:05.338Z,19.84
2018-04-10T01:04:33.723Z,19.64
2018-04-10T01:07:02.090Z,19.82
2018-04-10T01:09:30.701Z,19.96
2018-04-10T01:11:59.064Z,20.00
2018-04-10T01:14:27.442Z,19.74
2018-04-10T01:16:55.822Z,19.75
2018-04-10T01:19:24.202Z,19.41
2018-04-10T01:21:52.643Z,19.64
2018-04-10T01:24:21.011Z,19.60
2018-04-10T01:26:49.716Z,19.82
2018-04-10T01:29:18.137Z,19.94
2018-04-10T01:31:46.493Z,19.78
2018-04-10T01:34:14.927Z,20.05
2018-04-10T01:36:43.400Z,20.13
2018-04-10T01:39:11.801Z,19.88
2018-04-10T01:41:40.230Z,19.67
2018-04-10T01:44:08.585Z,19.84
2018-04-10T01:46:36.966Z,19.81
2018-04-10T01:49:05.466Z,19.76
2018-04-10T01:51:33.889Z,19.84
2018-04-10T01:54:02.257Z,19.66
2018-04-10T01:56:30.616Z,19.77
2018-04-10T01:58:58.977Z,19.31
2018-04-10T02:01:27.349Z,19.69
2018-04-10T02:03:55.716Z,19.40
2018-04-10T02:06:24.220Z,19.03
2018-04-10T02:08:52.569Z,19.30
2018-04-10T02:11:20.931Z,19.28
2018-04-10T02:13:49.391Z,19.06
2018-04-10T02:16:17.827Z,19.66
2018-04-10T02:18:46.298Z,19.76
2018-04-10T02:21:14.654Z,19.89
2018-04-10T02:23:43.127Z,19.42
2018-04-10T02:26:11.735Z,19.38
2018-04-10T02:28:40.087Z,19.70
2018-04-10T02:31:08.485Z,19.59
2018-04-10T02:33:36.838Z,19.73
2018-04-10T02:36:05.197Z,19.73
2018-04-10T02:38:33.716Z,19.67
2018-04-10T02:41:02.072Z,19.63
2018-04-10T02:43:30.468Z,19.43
2018-04-10T02:45:58.823Z,19.19
2018-04-10T02:48:27.281Z,19.25
2018-04-10T02:50:55.713Z,19.02
2018-04-10T02:53:24.070Z,19.14
2018-04-10T02:55:52.429Z,18.88
2018-04-10T02:58:20.797Z,18.87
2018-04-10T03:00:49.310Z,18.45
2018-04-10T03:03:17.662Z,18.62
2018-04-10T03:05:46.012Z,18.51
2018-04-10T03:08:14.480Z,18.80
2018-04-10T03:10:42.849Z,19.01
2018-04-10T03:13:11.334Z,19.24
2018-04-10T03:15:39.762Z,19.23
2018-04-10T03:18:08.197Z,19.02
2018-04-10T03:20:36.567Z,19.12
2018-04-10T03:23:04.933Z,19.14
2018-04-10T03:25:33.328Z,18.97
2018-04-10T03:28:01.699Z,18.73
2018-04-10T03:30:30.173Z,18.20
2018-04-10T03:32:58.569Z,18.55
2018-04-10T03:35:26.967Z,18.20
2018-04-10T03:37:55.361Z,18.40
2018-04-10T03:40:23.752Z,18.08
2018-04-10T03:42:52.178Z,17.80
2018-04-10T03:45:20.574Z,18.11
2018-04-10T03:47:49.021Z,17.75
2018-04-10T03:50:17.372Z,17.89
2018-04-10T03:52:45.770Z,17.83
2018-04-10T03:55:14.181Z,17.58
2018-04-10T03:57:42.528Z,17.67
2018-04-10T04:00:10.972Z,17.72
2018-04-10T04:02:39.364Z,17.58
2018-04-10T04:05:07.816Z,17.61
2018-04-10T04:07:36.212Z,17.59
2018-04-10T04:10:04.606Z,17.29
2018-04-10T04:12:33.050Z,17.46
2018-04-10T04:15:01.439Z,17.37
2018-04-10T04:17:33.708Z,17.20
2018-04-10T04:20:13.741Z,16.82
2018-04-10T04:22:42.180Z,16.73
2018-04-10T04:25:10.602Z,16.35
2018-04-10T04:27:38.985Z,16.35
2018-04-10T04:30:07.375Z,16.21
2018-04-10T04:32:35.756Z,15.91
2018-04-10T04:35:04.319Z,16.04
2018-04-10T04:37:32.720Z,16.12
2018-04-10T04:40:01.444Z,16.03
2018-04-10T04:42:30.066Z,16.18
2018-04-10T04:44:58.451Z,15.91
2018-04-10T04:47:26.981Z,15.79
2018-04-10T04:49:55.632Z,15.68
2018-04-10T04:52:24.283Z,15.69
2018-04-10T04:54:52.668Z,15.37
2018-04-10T04:57:21.047Z,15.69
2018-04-10T04:59:50.014Z,15.28
2018-04-10T05:02:18.380Z,15.43
2018-04-10T05:04:46.730Z,15.51
2018-04-10T05:07:15.094Z,15.43
2018-04-10T05:09:43.496Z,15.68
2018-04-10T05:12:11.865Z,15.74
2018-04-10T05:14:40.266Z,15.31
2018-04-10T05:17:08.688Z,15.26
2018-04-10T05:19:37.064Z,15.80
2018-04-10T05:22:05.449Z,16.14
2018-04-10T05:24:33.896Z,15.73
2018-04-10T05:27:02.281Z,15.96
2018-04-10T05:29:30.812Z,15.80
2018-04-10T05:31:59.177Z,16.13
2018-04-10T05:34:27.581Z,16.25
2018-04-10T05:36:55.958Z,16.43
2018-04-10T05:39:24.319Z,16.48
2018-04-10T05:41:52.692Z,16.65
2018-04-10T05:44:21.049Z,16.52
2018-04-10T05:46:49.424Z,16.71
2018-04-10T05:49:17.820Z,16.68
2018-04-10T05:51:46.284Z,16.08
2018-04-10T05:54:14.678Z,16.66
2018-04-10T05:56:43.063Z,16.99
2018-04-10T05:59:11.496Z,17.14
2018-04-10T06:01:39.878Z,17.25
2018-04-10T06:04:08.283Z,17.39
2018-04-10T06:06:36.680Z,17.23
2018-04-10T06:09:05.113Z,17.52
2018-04-10T06:11:33.588Z,17.47
2018-04-10T06:14:02.395Z,17.88
2018-04-10T06:16:30.777Z,18.16
2018-04-10T06:18:59.150Z,18.50
2018-04-10T06:21:27.578Z,19.23
2018-04-10T06:23:55.981Z,20.73
2018-04-10T06:26:24.520Z,21.86
2018-04-10T06:28:52.940Z,22.99
2018-04-10T06:31:21.338Z,24.81
2018-04-10T06:33:49.740Z,25.93
2018-04-10T06:36:18.151Z,25.40
2018-04-10T06:38:46.630Z,26.07
2018-04-10T06:41:15.056Z,27.89
2018-04-10T06:43:43.556Z,28.56
2018-04-10T06:46:11.947Z,28.86
2018-04-10T06:48:40.401Z,29.64
2018-04-10T06:51:08.854Z,30.74
2018-04-10T06:53:37.253Z,31.05
2018-04-10T06:56:05.638Z,30.11
2018-04-10T06:58:34.032Z,31.75
2018-04-10T07:01:02.436Z,31.07
2018-04-10T07:03:30.930Z,32.73
2018-04-10T07:05:59.461Z,32.64
2018-04-10T07:08:27.853Z,32.08
2018-04-10T07:10:56.288Z,31.27
2018-04-10T07:13:24.684Z,32.12
2018-04-10T07:15:53.142Z,33.78
2018-04-10T07:18:21.595Z,31.83
2018-04-10T07:20:49.991Z,33.94
2018-04-10T07:23:18.425Z,33.06
2018-04-10T07:25:46.818Z,32.23
2018-04-10T07:28:15.301Z,31.30
2018-04-10T07:30:43.689Z,31.28
2018-04-10T07:33:12.033Z,31.68
2018-04-10T07:35:40.418Z,30.93
2018-04-10T07:38:08.760Z,30.55
2018-04-10T07:40:37.133Z,30.01
2018-04-10T07:43:05.476Z,28.78
2018-04-10T07:45:33.841Z,28.72
2018-04-10T07:48:02.275Z,28.87
2018-04-10T07:50:30.661Z,30.12
2018-04-10T07:52:59.029Z,30.93
2018-04-10T07:55:27.483Z,31.34
2018-04-10T07:57:55.845Z,29.91
2018-04-10T08:00:24.194Z,30.98
2018-04-10T08:02:52.560Z,31.92
2018-04-10T08:05:20.920Z,32.11
2018-04-10T08:07:49.378Z,32.43
2018-04-10T08:10:17.774Z,33.30
2018-04-10T08:12:46.131Z,34.59
2018-04-10T08:15:14.515Z,35.45
2018-04-10T08:17:42.921Z,33.58
2018-04-10T08:20:11.311Z,35.56
2018-04-10T08:22:39.657Z,32.60
2018-04-10T08:25:08.085Z,34.68
2018-04-10T08:27:36.484Z,34.47
2018-04-10T08:30:04.982Z,34.48
2018-04-10T08:32:33.353Z,33.37
2018-04-10T08:35:01.793Z,33.37
2018-04-10T08:37:30.237Z,33.22
2018-04-10T08:39:58.592Z,30.99
2018-04-10T08:42:26.954Z,30.68
2018-04-10T08:44:55.324Z,32.03
2018-04-10T08:47:28.083Z,32.75
2018-04-10T08:49:56.467Z,30.71
2018-04-10T08:52:24.840Z,30.72
2018-04-10T08:54:53.200Z,29.08
2018-04-10T08:57:21.551Z,28.74
2018-04-10T08:59:49.987Z,29.11
2018-04-10T09:02:18.341Z,28.21
2018-04-10T09:04:46.736Z,27.90
2018-04-10T09:07:15.288Z,28.87
2018-04-10T09:09:43.686Z,30.87
2018-04-10T09:12:12.218Z,32.12
2018-04-10T09:14:40.570Z,34.73
2018-04-10T09:17:08.917Z,35.66
2018-04-10T09:19:37.297Z,35.74
2018-04-10T09:22:05.650Z,35.14
2018-04-10T09:24:34.117Z,35.46
2018-04-10T09:27:02.480Z,36.30
2018-04-10T09:29:30.848Z,33.68
2018-04-10T09:31:59.196Z,34.22
2018-04-10T09:34:27.627Z,35.00
2018-04-10T09:36:56.012Z,34.86
2018-04-10T09:39:24.380Z,35.25
2018-04-10T09:41:52.753Z,35.74
2018-04-10T09:44:21.119Z,35.85
2018-04-10T09:46:49.491Z,37.07
2018-04-10T09:49:18.025Z,36.98
2018-04-10T09:51:46.394Z,37.01
2018-04-10T09:54:14.791Z,36.12
2018-04-10T09:56:43.162Z,37.85
2018-04-10T09:59:11.519Z,37.79
2018-04-10T10:01:39.964Z,36.44
2018-04-10T10:04:08.318Z,35.00
2018-04-10T10:06:36.670Z,33.56
2018-04-10T10:09:05.813Z,34.14
2018-04-10T10:11:34.233Z,35.04
2018-04-10T10:14:02.643Z,35.13
2018-04-10T10:16:31.035Z,34.28
2018-04-10T10:18:59.401Z,33.82
2018-04-10T10:21:27.753Z,34.21
2018-04-10T10:23:56.148Z,34.31
2018-04-10T10:26:24.699Z,34.88
2018-04-10T10:28:53.049Z,35.24
2018-04-10T10:31:21.444Z,36.14
2018-04-10T10:33:49.828Z,35.42
2018-04-10T10:36:18.223Z,34.84
2018-04-10T10:38:46.685Z,34.40
2018-04-10T10:41:15.142Z,32.77
2018-04-10T10:43:43.510Z,34.59
2018-04-10T10:46:11.892Z,35.29
2018-04-10T10:48:40.351Z,35.16
2018-04-10T10:51:08.817Z,33.93
2018-04-10T10:53:37.225Z,37.27
2018-04-10T10:56:05.617Z,35.43
2018-04-10T10:58:34.141Z,34.73
2018-04-10T11:01:02.538Z,34.00
2018-04-10T11:03:31.074Z,33.18
2018-04-10T11:05:59.579Z,32.35
2018-04-10T11:08:28.050Z,33.47
2018-04-10T11:10:56.462Z,33.23
2018-04-10T11:13:24.858Z,34.12
2018-04-10T11:15:53.301Z,34.12
2018-04-10T11:18:21.786Z,35.20
2018-04-10T11:20:50.205Z,34.65
2018-04-10T11:23:18.605Z,33.59
2018-04-10T11:25:47.083Z,32.24
2018-04-10T11:28:15.531Z,32.25
2018-04-10T11:30:43.931Z,33.29
2018-04-10T11:33:12.461Z,32.63
2018-04-10T11:35:40.882Z,33.37
2018-04-10T11:38:09.333Z,33.64
2018-04-10T11:40:37.780Z,33.81
2018-04-10T11:43:06.172Z,33.43
2018-04-10T11:45:34.748Z,33.89
2018-04-10T11:48:03.121Z,34.63
2018-04-10T11:50:31.542Z,34.71
2018-04-10T11:53:00.101Z,34.26
2018-04-10T11:55:28.503Z,31.92
2018-04-10T11:57:56.907Z,33.57
2018-04-10T12:00:25.306Z,33.84
2018-04-10T12:02:53.771Z,32.99
2018-04-10T12:05:22.168Z,33.50
2018-04-10T12:07:50.637Z,32.60
2018-04-10T12:10:19.193Z,32.26
2018-04-10T12:12:47.597Z,31.56
2018-04-10T12:15:16.020Z,32.29
2018-04-10T12:17:44.457Z,31.09
2018-04-10T12:20:12.848Z,30.01
2018-04-10T12:22:41.304Z,29.88
2018-04-10T12:25:09.706Z,29.08
2018-04-10T12:27:38.198Z,28.65
2018-04-10T12:30:06.593Z,29.60
2018-04-10T12:32:34.990Z,28.81
2018-04-10T12:35:03.396Z,28.47
2018-04-10T12:37:31.807Z,29.17
2018-04-10T12:40:00.228Z,28.92
2018-04-10T12:42:28.658Z,29.15
2018-04-10T12:44:57.032Z,28.89
2018-04-10T12:47:25.437Z,29.47
2018-04-10T12:49:53.816Z,29.12
2018-04-10T12:52:22.354Z,28.17
2018-04-10T12:54:50.753Z,27.68
2018-04-10T12:57:19.191Z,27.99
2018-04-10T12:59:47.557Z,28.24
2018-04-10T13:02:15.978Z,28.72
2018-04-10T13:04:44.461Z,28.04
2018-04-10T13:07:12.873Z,28.09
2018-04-10T13:09:41.319Z,27.60
2018-04-10T13:12:09.746Z,27.32
2018-04-10T13:14:38.132Z,27.55
2018-04-10T13:17:06.693Z,27.74
2018-04-10T13:19:35.180Z,28.48
2018-04-10T13:22:03.621Z,27.83
2018-04-10T13:24:32.346Z,28.18
2018-04-10T13:27:01.046Z,27.83
2018-04-10T13:29:29.424Z,27.39
2018-04-10T13:31:57.837Z,28.47
2018-04-10T13:34:26.287Z,28.24
2018-04-10T13:36:55.081Z,27.56
2018-04-10T13:39:25.362Z,28.08
2018-04-10T13:41:53.865Z,28.43
2018-04-10T13:44:22.837Z,28.10
2018-04-10T13:46:51.224Z,28.01
2018-04-10T13:49:19.609Z,27.91
2018-04-10T13:51:48.068Z,28.23
2018-04-10T13:54:16.569Z,27.32
2018-04-10T13:56:44.968Z,26.90
2018-04-10T13:59:13.513Z,27.88
2018-04-10T14:01:42.046Z,26.81
2018-04-10T14:04:10.593Z,25.55
2018-04-10T14:06:38.968Z,25.99
2018-04-10T14:09:07.439Z,25.34
2018-04-10T14:11:35.841Z,26.81
2018-04-10T14:14:08.275Z,27.42
2018-04-10T14:16:36.751Z,27.15
2018-04-10T14:19:05.223Z,27.18
2018-04-10T14:21:33.621Z,27.31
2018-04-10T14:24:02.009Z,27.02
2018-04-10T14:26:30.438Z,27.35
2018-04-10T14:28:58.893Z,27.24
2018-04-10T14:31:27.256Z,27.45
2018-04-10T14:33:55.653Z,26.60
2018-04-10T14:36:24.021Z,26.76
2018-04-10T14:38:52.459Z,26.48
2018-04-10T14:41:21.146Z,25.95
2018-04-10T14:43:50.094Z,25.47
2018-04-10T14:46:19.401Z,26.32
2018-04-10T14:48:47.844Z,27.02
2018-04-10T14:51:16.302Z,26.56
2018-04-10T14:53:45.111Z,27.16
2018-04-10T14:56:14.421Z,26.82
2018-04-10T14:58:42.930Z,27.01
2018-04-10T15:01:11.316Z,26.65
2018-04-10T15:03:45.290Z,27.34
2018-04-10T15:06:13.695Z,26.17
2018-04-10T15:08:42.187Z,26.18
2018-04-10T15:11:10.645Z,26.28
2018-04-10T15:13:39.284Z,26.98
2018-04-10T15:16:08.908Z,27.49
2018-04-10T15:18:37.458Z,26.83
2018-04-10T15:21:05.873Z,27.24
2018-04-10T15:23:34.271Z,26.86
2018-04-10T15:26:02.664Z,26.48
2018-04-10T15:28:31.103Z,26.64
2018-04-10T15:30:59.606Z,26.88
2018-04-10T15:33:27.995Z,26.59
2018-04-10T15:35:57.812Z,27.19
2018-04-10T15:38:26.291Z,26.76
2018-04-10T15:40:54.855Z,27.03
2018-04-10T15:43:23.248Z,26.97
2018-04-10T15:45:51.772Z,27.93
2018-04-10T15:48:20.316Z,28.26
2018-04-10T15:50:48.845Z,27.14
2018-04-10T15:53:17.301Z,27.20
2018-04-10T15:55:45.768Z,26.52
2018-04-10T15:58:14.527Z,26.57
2018-04-10T16:00:43.090Z,26.00
2018-04-10T16:03:11.529Z,26.57
2018-04-10T16:05:39.965Z,26.22
2018-04-10T16:08:08.358Z,26.25
2018-04-10T16:10:36.782Z,26.44
2018-04-10T16:13:05.711Z,26.21
2018-04-10T16:15:34.261Z,25.80
2018-04-10T16:18:02.720Z,26.37
2018-04-10T16:20:31.187Z,25.76
2018-04-10T16:22:59.660Z,26.33
2018-04-10T16:25:28.125Z,26.25
2018-04-10T16:27:57.604Z,26.19
2018-04-10T16:30:26.090Z,26.07
2018-04-10T16:32:54.547Z,25.99
2018-04-10T16:35:22.973Z,25.77
2018-04-10T16:37:51.374Z,25.69
2018-04-10T16:40:19.808Z,26.06
2018-04-10T16:42:48.400Z,25.69
2018-04-10T16:45:16.909Z,25.36
2018-04-10T16:47:45.302Z,24.57
2018-04-10T16:50:14.018Z,24.51
2018-04-10T16:52:42.408Z,24.44
2018-04-10T16:55:10.964Z,24.84
2018-04-10T16:57:39.828Z,24.55
2018-04-10T17:00:09.122Z,24.89
2018-04-10T17:02:37.616Z,24.81
2018-04-10T17:05:06.186Z,25.33
2018-04-10T17:07:34.687Z,24.90
2018-04-10T17:10:03.141Z,25.08
2018-04-10T17:12:31.570Z,24.83
2018-04-10T17:14:59.940Z,25.06
2018-04-10T17:17:29.254Z,24.64
2018-04-10T17:19:57.632Z,24.85
2018-04-10T17:22:26.097Z,24.67
2018-04-10T17:24:54.488Z,24.61
2018-04-10T17:27:22.889Z,25.30
2018-04-10T17:29:51.332Z,24.60
2018-04-10T17:32:19.812Z,24.13
2018-04-10T17:34:48.281Z,24.05
2018-04-10T17:37:16.661Z,24.68
2018-04-10T17:39:45.128Z,24.01
2018-04-10T17:42:13.530Z,24.54
2018-04-10T17:47:41.613Z,25.08
2018-04-10T17:50:10.090Z,25.33
2018-04-10T17:52:38.666Z,25.05
2018-04-10T17:55:07.105Z,25.18
2018-04-10T17:57:35.574Z,24.27
2018-04-10T18:00:04.025Z,24.83
2018-04-10T18:02:32.629Z,24.69
2018-04-10T18:05:01.229Z,24.73
2018-04-10T18:07:30.606Z,24.43
2018-04-10T18:09:59.375Z,24.57
2018-04-10T18:12:27.793Z,24.16
2018-04-10T18:14:56.214Z,24.31
2018-04-10T18:17:24.774Z,23.97
2018-04-10T18:19:53.189Z,23.74
2018-04-10T18:22:21.600Z,24.66
2018-04-10T18:24:50.098Z,24.29
2018-04-10T18:27:18.522Z,23.63
2018-04-10T18:29:46.897Z,24.30
2018-04-10T18:32:15.316Z,24.42
2018-04-10T18:34:43.706Z,24.06
2018-04-10T18:37:12.076Z,24.26
2018-04-10T18:39:40.485Z,24.24
2018-04-10T18:42:08.863Z,24.39
2018-04-10T18:44:37.397Z,24.25
2018-04-10T18:47:05.771Z,24.08
2018-04-10T18:49:34.144Z,23.95
2018-04-10T18:52:02.510Z,24.20
2018-04-10T18:54:30.870Z,24.22
2018-04-10T18:56:59.292Z,23.88
2018-04-10T18:59:27.661Z,24.02
2018-04-10T19:01:56.134Z,23.52
2018-04-10T19:04:24.518Z,23.84
2018-04-10T19:06:53.280Z,24.31
2018-04-10T19:09:23.404Z,24.13
2018-04-10T19:11:52.003Z,24.35
2018-04-10T19:14:20.864Z,23.76
2018-04-10T19:16:49.321Z,22.96
2018-04-10T19:19:17.751Z,23.01
2018-04-10T19:21:46.122Z,22.48
2018-04-10T19:24:15.446Z,23.03
2018-04-10T19:26:43.965Z,23.48
2018-04-10T19:29:12.549Z,23.25
2018-04-10T19:31:42.820Z,23.52
2018-04-10T19:34:11.426Z,23.08
2018-04-10T19:36:39.881Z,22.40
2018-04-10T19:41:51.064Z,23.10
2018-04-10T19:44:19.493Z,23.05
2018-04-10T19:46:47.885Z,23.17
2018-04-10T19:49:16.296Z,23.12
2018-04-10T19:54:46.294Z,22.73
2018-04-10T19:57:14.809Z,22.92
2018-04-10T19:59:43.353Z,21.83
2018-04-10T20:02:13.835Z,21.77
2018-04-10T20:04:42.377Z,22.53
2018-04-10T20:07:10.784Z,22.10
2018-04-10T20:09:39.186Z,22.37
2018-04-10T20:12:07.581Z,21.80
2018-04-10T20:14:36.166Z,21.91
2018-04-10T20:17:05.164Z,21.99
2018-04-10T20:19:33.657Z,21.85
2018-04-10T20:22:02.787Z,21.84
2018-04-10T20:24:31.344Z,21.74
2018-04-10T20:26:59.749Z,21.79
2018-04-10T20:29:28.114Z,21.61
2018-04-10T20:31:56.489Z,21.05
2018-04-10T20:34:25.918Z,21.12
2018-04-10T20:36:54.318Z,20.44
2018-04-10T20:39:22.708Z,20.50
2018-04-10T20:41:51.098Z,20.14
2018-04-10T20:44:25.262Z,19.74
2018-04-10T20:46:57.624Z,19.03
2018-04-10T20:49:26.018Z,18.73
2018-04-10T20:51:54.414Z,18.56
2018-04-10T20:54:22.792Z,18.80
2018-04-10T20:56:51.188Z,18.98
2018-04-10T20:59:19.660Z,18.73
2018-04-10T21:01:48.160Z,18.58
2018-04-10T21:04:16.684Z,18.56
2018-04-10T21:06:45.077Z,19.01
2018-04-10T21:09:13.538Z,18.92
2018-04-10T21:11:42.001Z,18.66
2018-04-10T21:14:10.401Z,19.15
2018-04-10T21:16:38.880Z,18.94
2018-04-10T21:19:07.288Z,18.84
2018-04-10T21:21:35.768Z,18.33
2018-04-10T21:24:04.219Z,18.28
2018-04-10T21:26:32.609Z,18.17
2018-04-10T21:29:00.997Z,18.27
2018-04-10T21:31:29.407Z,18.50
2018-04-10T21:33:58.096Z,18.37
2018-04-10T21:36:26.518Z,18.36
2018-04-10T21:38:54.883Z,18.41
2018-04-10T21:41:23.345Z,18.55
2018-04-10T21:43:51.769Z,18.45
2018-04-10T21:46:20.169Z,18.04
2018-04-10T21:48:48.608Z,18.14
2018-04-10T21:51:17.001Z,18.64
2018-04-10T21:53:45.429Z,18.76
2018-04-10T21:56:13.789Z,18.56
2018-04-10T21:58:42.181Z,18.07
2018-04-10T22:01:10.552Z,18.15
2018-04-10T22:03:38.917Z,18.19
2018-04-10T22:06:07.331Z,17.91
2018-04-10T22:08:35.693Z,17.81
2018-04-10T22:11:04.103Z,18.05
2018-04-10T22:13:32.482Z,17.51
2018-04-10T22:16:01.011Z,17.19
2018-04-10T22:18:29.402Z,16.88
2018-04-10T22:20:57.791Z,17.13
2018-04-10T22:23:26.160Z,17.75
2018-04-10T22:25:54.534Z,17.74
2018-04-10T22:28:22.982Z,17.53
2018-04-10T22:30:51.459Z,17.71
2018-04-10T22:33:19.805Z,17.77
2018-04-10T22:35:48.179Z,17.77
2018-04-10T22:38:16.642Z,17.25
2018-04-10T22:40:45.161Z,17.23
2018-04-10T22:43:13.543Z,17.59
2018-04-10T22:45:41.900Z,17.97
2018-04-10T22:48:10.265Z,17.58
2018-04-10T22:50:38.632Z,17.97
2018-04-10T22:53:07.062Z,17.83
2018-04-10T22:55:35.430Z,18.08
2018-04-10T22:58:03.781Z,18.29
2018-04-10T23:00:49.515Z,18.21
2018-04-10T23:03:17.933Z,18.13
2018-04-10T23:05:46.421Z,18.17
2018-04-10T23:08:14.942Z,17.87
2018-04-10T23:10:43.315Z,17.81
2018-04-10T23:13:11.692Z,17.56
2018-04-10T23:15:40.059Z,16.88
2018-04-10T23:18:08.445Z,17.16
2018-04-10T23:20:36.849Z,17.54
2018-04-10T23:23:05.281Z,17.79
2018-04-10T23:25:33.654Z,17.68
2018-04-10T23:28:02.041Z,17.91
2018-04-10T23:30:30.414Z,17.51
2018-04-10T23:32:58.779Z,17.10
2018-04-10T23:35:27.285Z,17.69
2018-04-10T23:37:55.647Z,17.86
2018-04-10T23:40:24.074Z,18.25
2018-04-10T23:42:52.472Z,17.93
2018-04-10T23:45:20.849Z,18.14
2018-04-10T23:47:49.221Z,17.99
2018-04-10T23:50:17.589Z,18.18
2018-04-10T23:52:45.970Z,18.57
2018-04-10T23:55:14.324Z,18.63
2018-04-10T23:57:42.713Z,17.56
